Miranda De Ebro, Spain
Current Conditions -  °F | °C
As of 7:00 AM on Friday 28 Nov 2014 (Local Time) from LEVT Reporting Station
Broken Clouds Broken Clouds  
Wind Chill: 54°   Ceiling: 6500
Heat Index: 54°   Visibility: 6mi
Dew Point: 45°   Wind: 16mph
Humidity: 72%   Direction: 150°SSE
Pressure: 29.12"   Gusts: NA
Location:  42.69°N, 2.95°W
Report Text: LEVT 280600Z 15014KT 110V170 9999 SCT045 BKN065 12/07 Q0986
Loading
Personal Weather Stations






























Interactive Weather Map New forecast layout! Learn more

10-Day Weather Forecast

Advertisements
Track Severe Weather on mobile